Time;durP1;ratioP1;P1;durP2;ratioP2;P2;SDS_P1;SDS_P2;PMS_P1;PMS_P2;Temp;Humidity;BMP_temperature;BMP_pressure;BME280_temperature;BME280_humidity;BME280_pressure;Samples;Min_cycle;Max_cycle;Signal;HPM_P1;HPM_P2
2022/04/14 00:01:36;;;;;;;26.27;14.40;;;;;;;7.91;52.20;95330.81;4995505;28;20026;-77
2022/04/14 00:04:01;;;;;;;29.02;12.75;;;;;;;7.86;52.14;95334.03;4996083;28;20034;-78
2022/04/14 00:06:27;;;;;;;28.83;13.18;;;;;;;7.81;52.13;95332.03;5011160;28;20062;-77
2022/04/14 00:08:52;;;;;;;21.40;12.02;;;;;;;7.80;51.82;95335.59;4994316;28;20064;-78
2022/04/14 00:11:18;;;;;;;19.10;11.35;;;;;;;7.70;51.84;95335.25;5012206;28;20080;-78
2022/04/14 00:13:44;;;;;;;16.90;10.20;;;;;;;7.64;51.99;95328.25;4994042;28;20518;-77
2022/04/14 00:16:09;;;;;;;16.45;10.00;;;;;;;7.70;52.16;95331.84;5011713;28;20034;-78
2022/04/14 00:18:35;;;;;;;24.35;10.18;;;;;;;7.65;52.01;95335.06;5012561;28;20041;-77
2022/04/14 00:21:00;;;;;;;17.10;11.05;;;;;;;7.58;52.63;95318.72;5010757;28;20033;-78
2022/04/14 00:23:26;;;;;;;18.77;10.20;;;;;;;7.61;52.52;95325.28;4995226;28;20045;-77
2022/04/14 00:25:51;;;;;;;25.42;11.50;;;;;;;7.56;52.48;95323.28;5013265;28;20045;-78
2022/04/14 00:28:17;;;;;;;40.40;14.50;;;;;;;7.56;52.17;95327.69;5013202;28;20570;-78
2022/04/14 00:30:42;;;;;;;36.08;14.80;;;;;;;7.49;52.85;95328.50;5011421;28;20034;-78
2022/04/14 00:33:08;;;;;;;38.83;15.40;;;;;;;7.48;52.79;95333.84;4995138;28;20104;-77
2022/04/14 00:35:33;;;;;;;41.67;14.70;;;;;;;7.44;53.49;95338.63;5012559;28;20025;-77
2022/04/14 00:37:59;;;;;;;36.08;15.95;;;;;;;7.40;53.17;95339.22;5011814;28;20030;-78
2022/04/14 00:40:24;;;;;;;48.90;22.23;;;;;;;7.37;53.04;95337.03;5010700;28;20033;-77
2022/04/14 00:42:50;;;;;;;46.10;22.65;;;;;;;7.33;53.15;95339.22;5010009;28;20092;-77
2022/04/14 00:45:15;;;;;;;54.92;23.50;;;;;;;7.33;53.49;95338.44;5010471;28;20045;-77
2022/04/14 00:47:41;;;;;;;80.25;35.35;;;;;;;7.30;53.57;95333.63;4995343;28;20429;-77
2022/04/14 00:50:07;;;;;;;97.25;47.75;;;;;;;7.32;52.67;95342.00;5011501;28;20079;-78
2022/04/14 00:52:32;;;;;;;77.75;39.65;;;;;;;7.30;52.66;95336.22;5012153;28;20041;-78
2022/04/14 00:54:58;;;;;;;89.90;46.10;;;;;;;7.27;52.81;95332.25;5011889;28;20033;-78
2022/04/14 00:57:23;;;;;;;65.78;34.70;;;;;;;7.19;53.48;95338.41;5011147;28;20378;-78
2022/04/14 00:59:48;;;;;;;67.22;37.40;;;;;;;7.20;53.29;95342.59;4993943;28;20052;-77
2022/04/14 01:02:14;;;;;;;71.35;38.25;;;;;;;7.25;52.82;95336.03;4994895;28;20100;-77
2022/04/14 01:04:39;;;;;;;65.85;35.20;;;;;;;7.27;52.88;95337.41;4995015;28;20042;-78
2022/04/14 01:07:08;;;;;;;63.70;33.20;;;;;;;7.26;53.21;95345.38;4995428;28;20096;-77
2022/04/14 01:09:34;;;;;;;71.72;34.05;;;;;;;7.26;53.47;95342.78;5010430;28;20033;-78
2022/04/14 01:11:59;;;;;;;70.13;34.53;;;;;;;7.29;53.12;95347.56;5011371;28;20048;-78
2022/04/14 01:14:25;;;;;;;92.03;37.65;;;;;;;7.26;53.47;95341.00;5011726;28;20264;-78
2022/04/14 01:16:50;;;;;;;80.00;39.83;;;;;;;7.27;53.42;95341.78;5016011;28;20040;-77
2022/04/14 01:19:15;;;;;;;74.75;40.88;;;;;;;7.18;53.81;95343.78;4991770;28;20045;-77
2022/04/14 01:21:42;;;;;;;78.30;38.00;;;;;;;7.21;54.04;95346.78;5008341;28;20034;-77
2022/04/14 01:24:09;;;;;;;74.10;38.88;;;;;;;7.13;53.29;95354.72;5007522;28;20104;-77
2022/04/14 01:26:37;;;;;;;68.78;34.72;;;;;;;7.10;53.67;95349.13;5009255;28;20034;-77
2022/04/14 01:29:03;;;;;;;63.42;33.53;;;;;;;7.12;52.98;95353.13;4992386;28;20057;-77
2022/04/14 01:31:28;;;;;;;43.78;25.17;;;;;;;7.10;53.73;95349.13;5007863;28;20047;-78
2022/04/14 01:33:54;;;;;;;52.20;30.55;;;;;;;7.12;53.88;95347.16;5008662;28;20465;-79
2022/04/14 01:36:19;;;;;;;68.50;38.10;;;;;;;6.99;54.32;95347.91;5010390;28;20040;-78
2022/04/14 01:38:45;;;;;;;64.15;37.65;;;;;;;7.05;53.44;95346.34;5010834;28;20037;-78
2022/04/14 01:41:10;;;;;;;82.10;51.50;;;;;;;7.02;53.64;95339.78;5012821;28;20030;-78
2022/04/14 01:43:36;;;;;;;124.40;64.20;;;;;;;6.99;53.66;95339.38;5024762;28;20187;-78
2022/04/14 01:46:27;;;;;;;78.75;45.42;;;;;;;6.96;53.64;95348.31;5030225;28;20038;-79
2022/04/14 01:48:54;;;;;;;61.15;34.40;;;;;;;6.87;53.28;95352.09;5017078;28;20168;-79
2022/04/14 01:51:19;;;;;;;53.78;30.92;;;;;;;6.81;53.68;95345.09;5014392;28;20042;-78
2022/04/14 01:53:45;;;;;;;25.10;11.98;;;;;;;6.80;53.68;95359.00;5017826;28;20034;-77
2022/04/14 01:56:10;;;;;;;22.10;11.00;;;;;;;6.84;53.69;95360.22;5024939;28;20498;-79
2022/04/14 01:58:39;;;;;;;21.95;14.65;;;;;;;6.77;54.54;95367.94;5010549;28;20026;-78
2022/04/14 02:01:05;;;;;;;22.35;14.20;;;;;;;6.73;54.75;95364.16;5030499;28;20030;-78
2022/04/14 02:03:30;;;;;;;19.77;13.40;;;;;;;6.68;54.32;95365.75;5031664;28;20041;-78
2022/04/14 02:05:56;;;;;;;22.08;10.23;;;;;;;6.71;54.52;95375.69;5018732;28;20425;-78
2022/04/14 02:08:21;;;;;;;16.50;9.48;;;;;;;6.71;54.28;95371.31;5020286;28;20088;-78
2022/04/14 02:10:47;;;;;;;18.58;9.27;;;;;;;6.60;54.64;95380.41;4995689;28;20053;-78
2022/04/14 02:13:12;;;;;;;19.45;9.65;;;;;;;6.60;55.45;95372.66;4994947;28;20034;-78
2022/04/14 02:15:37;;;;;;;24.25;9.63;;;;;;;6.59;55.31;95368.50;5012255;28;20084;-78
2022/04/14 02:18:03;;;;;;;25.23;13.32;;;;;;;6.53;55.00;95379.59;4995253;28;20417;-78
2022/04/14 02:20:28;;;;;;;76.53;29.95;;;;;;;6.54;55.69;95363.13;5012688;28;20460;-79
2022/04/14 02:22:54;;;;;;;103.05;45.58;;;;;;;6.53;55.59;95361.53;5015192;28;20056;-78
2022/04/14 02:25:20;;;;;;;162.05;74.40;;;;;;;6.49;54.89;95357.72;5016829;28;20030;-78
2022/04/14 02:27:46;;;;;;;166.32;94.38;;;;;;;6.45;55.34;95364.25;5013658;28;20041;-79
2022/04/14 02:30:11;;;;;;;143.73;81.13;;;;;;;6.46;54.94;95358.09;5014397;28;20048;-79
2022/04/14 02:32:37;;;;;;;155.82;82.10;;;;;;;6.45;55.58;95351.34;5031949;28;20103;-79
2022/04/14 02:35:04;;;;;;;125.05;69.22;;;;;;;6.46;55.35;95352.13;5001498;28;20037;-78
2022/04/14 02:37:30;;;;;;;117.57;52.97;;;;;;;6.41;56.09;95350.13;5001236;28;20044;-78
2022/04/14 02:39:55;;;;;;;100.68;40.65;;;;;;;6.40;55.95;95358.09;5016452;28;20037;-79
2022/04/14 02:42:20;;;;;;;43.92;19.67;;;;;;;6.31;55.16;95354.84;5014308;28;20038;-78
2022/04/14 02:44:46;;;;;;;30.23;14.98;;;;;;;6.30;55.26;95358.41;5013016;28;20041;-78
2022/04/14 02:47:11;;;;;;;26.98;12.95;;;;;;;6.25;54.84;95366.75;5012973;28;20101;-78
2022/04/14 02:49:37;;;;;;;23.77;10.90;;;;;;;6.18;55.08;95368.50;5014970;28;20025;-78
2022/04/14 02:52:02;;;;;;;16.48;8.13;;;;;;;6.17;54.60;95373.84;5013949;28;20049;-78
2022/04/14 02:54:28;;;;;;;13.27;8.60;;;;;;;6.20;53.99;95368.31;5014946;28;20026;-78
2022/04/14 02:56:56;;;;;;;17.73;7.90;;;;;;;6.21;53.38;95375.88;5013241;28;20042;-78
2022/04/14 02:59:22;;;;;;;17.83;8.10;;;;;;;6.14;53.76;95374.22;5010738;28;20037;-78
2022/04/14 03:01:47;;;;;;;13.32;8.50;;;;;;;6.17;54.14;95368.69;4994150;28;20033;-77
2022/04/14 03:04:13;;;;;;;18.10;8.20;;;;;;;6.19;53.50;95371.91;5011419;28;20026;-77
2022/04/14 03:06:38;;;;;;;17.02;9.48;;;;;;;6.21;54.28;95369.91;4994276;28;20485;-77
2022/04/14 03:09:03;;;;;;;19.77;9.57;;;;;;;6.13;55.24;95372.63;5010448;28;20034;-77
2022/04/14 03:11:29;;;;;;;27.48;15.70;;;;;;;6.05;55.44;95375.38;5011721;28;20030;-77
2022/04/14 03:13:54;;;;;;;42.25;23.15;;;;;;;6.08;54.90;95375.78;4993930;28;20033;-77
2022/04/14 03:16:20;;;;;;;43.60;23.90;;;;;;;6.07;54.95;95363.88;5001705;28;20107;-77
2022/04/14 03:18:45;;;;;;;37.20;22.02;;;;;;;6.05;55.40;95372.81;4993708;28;20453;-77
2022/04/14 03:21:13;;;;;;;39.70;22.90;;;;;;;6.07;55.50;95373.41;5012152;28;20099;-77
2022/04/14 03:23:39;;;;;;;45.10;25.05;;;;;;;5.98;55.74;95378.69;4993814;28;20091;-78
2022/04/14 03:26:08;;;;;;;51.38;24.63;;;;;;;5.98;55.87;95381.28;5011285;28;20034;-77
2022/04/14 03:28:33;;;;;;;43.55;23.52;;;;;;;5.98;55.36;95377.91;5010933;28;20037;-77
2022/04/14 03:30:59;;;;;;;34.90;15.20;;;;;;;6.01;54.40;95374.94;4994147;28;20172;-77
2022/04/14 03:33:24;;;;;;;28.98;13.93;;;;;;;6.05;53.58;95380.53;4993858;28;20032;-78
2022/04/14 03:35:50;;;;;;;13.48;8.02;;;;;;;6.08;53.21;95380.97;5011118;28;20045;-77
2022/04/14 03:38:15;;;;;;;24.45;13.02;;;;;;;6.10;53.69;95378.19;5009836;28;20048;-77
2022/04/14 03:40:41;;;;;;;37.20;21.30;;;;;;;6.12;53.94;95381.38;5009951;28;20029;-78
2022/04/14 03:43:06;;;;;;;34.55;19.80;;;;;;;6.08;54.24;95380.97;5011288;28;20464;-77
2022/04/14 03:45:31;;;;;;;27.55;16.35;;;;;;;6.03;54.07;95385.09;5009699;28;20037;-77
2022/04/14 03:47:57;;;;;;;26.40;16.33;;;;;;;5.97;54.96;95392.59;4992915;28;20456;-79
2022/04/14 03:50:22;;;;;;;26.60;12.85;;;;;;;5.89;54.80;95391.94;4994532;28;20054;-77
2022/04/14 03:52:48;;;;;;;109.43;41.05;;;;;;;5.86;54.96;95397.47;4995339;28;20025;-79
2022/04/14 03:55:13;;;;;;;200.68;73.03;;;;;;;5.83;56.62;95383.13;4996313;28;20061;-79
2022/04/14 03:57:39;;;;;;;158.25;61.72;;;;;;;5.97;56.15;95399.53;5013993;28;20890;-79
2022/04/14 04:00:06;;;;;;;128.98;48.60;;;;;;;6.06;55.15;95395.03;4997027;28;20041;-79
2022/04/14 04:02:32;;;;;;;101.78;41.65;;;;;;;6.16;54.64;95403.22;4998113;28;20030;-80
2022/04/14 04:04:57;;;;;;;88.03;37.30;;;;;;;6.31;54.76;95401.34;5017989;28;20397;-79
2022/04/14 04:07:23;;;;;;;81.05;35.15;;;;;;;6.51;53.60;95398.88;4998019;28;20025;-82
2022/04/14 04:09:48;;;;;;;90.60;35.03;;;;;;;6.75;53.49;95395.00;5010525;28;20033;-77
2022/04/14 04:12:13;;;;;;;82.97;35.15;;;;;;;7.06;52.62;95395.28;5009700;28;20832;-76
2022/04/14 04:14:39;;;;;;;84.38;32.58;;;;;;;7.47;51.29;95396.94;5011063;28;20038;-77
2022/04/14 04:17:04;;;;;;;66.97;27.45;;;;;;;7.90;49.86;95393.97;5011027;28;20033;-76
2022/04/14 04:19:30;;;;;;;120.53;50.47;;;;;;;8.50;48.81;95386.91;4993867;28;20209;-76
2022/04/14 04:21:56;;;;;;;112.03;55.72;;;;;;;9.27;47.42;95391.13;5012250;28;20049;-77
2022/04/14 04:24:21;;;;;;;131.23;53.78;;;;;;;10.32;45.07;95386.13;5010174;28;20042;-76
2022/04/14 04:26:46;;;;;;;97.60;45.90;;;;;;;11.55;41.73;95390.97;5008647;28;20500;-76
2022/04/14 04:29:12;;;;;;;110.03;47.22;;;;;;;12.85;38.91;95402.03;5009465;28;20038;-77
2022/04/14 04:31:37;;;;;;;121.88;57.67;;;;;;;14.24;35.76;95398.91;4992758;28;20030;-77
2022/04/14 04:34:03;;;;;;;147.70;69.30;;;;;;;15.56;33.48;95400.50;5011031;28;20414;-78
2022/04/14 04:36:28;;;;;;;141.05;69.47;;;;;;;16.57;31.70;95393.66;5009801;28;20100;-77
2022/04/14 04:38:54;;;;;;;128.85;63.17;;;;;;;17.61;30.40;95405.88;5009339;28;20041;-77
2022/04/14 04:41:20;;;;;;;101.57;51.70;;;;;;;18.80;28.10;95411.63;5010812;28;20397;-76
2022/04/14 04:43:46;;;;;;;65.15;28.13;;;;;;;19.90;25.43;95410.56;5009906;28;20107;-82
2022/04/14 04:46:13;;;;;;;34.30;16.23;;;;;;;21.03;24.34;95411.88;4994767;28;20033;-77
2022/04/14 04:48:38;;;;;;;22.15;10.20;;;;;;;21.84;22.77;95420.63;5012486;28;20494;-79
2022/04/14 04:51:03;;;;;;;17.85;8.50;;;;;;;22.61;21.67;95412.22;5014801;28;20045;-78
2022/04/14 04:53:29;;;;;;;12.25;8.52;;;;;;;23.48;20.75;95424.63;4996834;28;20097;-79
2022/04/14 04:55:54;;;;;;;23.08;8.60;;;;;;;24.38;19.66;95425.50;4996474;28;20037;-79
2022/04/14 04:58:20;;;;;;;28.83;8.93;;;;;;;25.38;19.30;95423.13;5012940;28;20060;-78
2022/04/14 05:00:45;;;;;;;29.83;9.18;;;;;;;26.34;18.47;95425.50;4999255;28;20040;-79
2022/04/14 05:03:12;;;;;;;25.90;8.43;;;;;;;27.09;17.35;95428.63;5015322;28;20041;-80
2022/04/14 05:05:38;;;;;;;20.25;7.25;;;;;;;27.76;16.36;95440.34;5018626;28;20034;-80
2022/04/14 05:08:05;;;;;;;17.80;7.15;;;;;;;28.43;15.68;95442.00;5018353;28;20042;-79
2022/04/14 05:10:31;;;;;;;13.00;6.38;;;;;;;29.13;14.90;95437.50;5016272;28;20036;-79
2022/04/14 05:12:57;;;;;;;15.77;6.05;;;;;;;29.66;14.17;95435.69;4996779;28;20037;-79
2022/04/14 05:15:22;;;;;;;20.27;6.55;;;;;;;30.34;13.69;95441.06;5012715;28;20074;-80
2022/04/14 05:17:48;;;;;;;17.65;6.85;;;;;;;30.97;13.91;95435.81;5012870;28;20048;-78
2022/04/14 05:20:14;;;;;;;21.05;7.18;;;;;;;31.53;13.30;95448.25;4995593;28;20030;-79
2022/04/14 05:22:39;;;;;;;21.30;6.97;;;;;;;31.95;12.47;95445.75;5013684;28;20030;-80
2022/04/14 05:25:05;;;;;;;16.42;7.38;;;;;;;32.51;12.20;95448.00;5013511;28;20460;-80
2022/04/14 05:27:31;;;;;;;18.10;7.13;;;;;;;33.01;11.80;95443.53;5015185;28;20030;-79
2022/04/14 05:29:56;;;;;;;19.80;6.60;;;;;;;33.02;11.49;95440.47;4997829;28;20253;-81
2022/04/14 05:32:22;;;;;;;23.83;7.82;;;;;;;32.61;12.17;95444.75;5015018;28;20029;-80
2022/04/14 05:34:47;;;;;;;20.35;10.73;;;;;;;32.66;12.03;95449.84;5017066;28;20099;-80
2022/04/14 05:37:13;;;;;;;34.65;11.27;;;;;;;33.36;11.45;95454.91;4999066;28;20851;-80
2022/04/14 05:39:38;;;;;;;20.98;10.80;;;;;;;34.08;11.38;95447.81;5016790;28;20044;-80
2022/04/14 05:42:04;;;;;;;19.73;9.63;;;;;;;34.57;10.85;95453.81;5015320;28;20108;-81
2022/04/14 05:44:30;;;;;;;16.63;9.15;;;;;;;34.93;10.82;95454.19;5016363;28;20037;-81
2022/04/14 05:46:55;;;;;;;17.92;7.97;;;;;;;35.39;10.16;95448.41;5017673;28;20040;-80
2022/04/14 05:49:21;;;;;;;13.98;7.10;;;;;;;35.20;10.32;95460.97;4998772;28;20041;-81
2022/04/14 05:51:47;;;;;;;14.88;6.15;;;;;;;34.89;10.28;95451.44;5015966;28;20425;-81
2022/04/14 05:54:14;;;;;;;16.27;6.65;;;;;;;34.78;10.45;95453.25;5016040;28;20123;-81
2022/04/14 05:56:40;;;;;;;22.48;6.75;;;;;;;34.67;10.60;95457.00;5000027;28;20129;-81
2022/04/14 05:59:05;;;;;;;18.35;6.97;;;;;;;34.17;10.66;95456.41;5017314;28;20574;-82
2022/04/14 06:01:31;;;;;;;25.08;6.95;;;;;;;33.24;11.45;95465.88;5018553;28;20026;-82
2022/04/14 06:03:57;;;;;;;20.45;8.07;;;;;;;31.81;12.45;95458.91;5002086;28;20057;-80
2022/04/14 06:06:22;;;;;;;26.25;6.95;;;;;;;31.07;12.99;95459.44;5018752;28;20065;-80
2022/04/14 06:08:48;;;;;;;19.25;7.90;;;;;;;30.55;13.53;95464.22;5018540;28;20045;-80
2022/04/14 06:11:13;;;;;;;20.73;7.97;;;;;;;30.05;14.15;95460.97;5003904;28;20034;-80
2022/04/14 06:13:38;;;;;;;17.02;7.38;;;;;;;29.70;14.51;95460.69;5021217;28;20069;-80
2022/04/14 06:16:04;;;;;;;25.60;7.80;;;;;;;29.29;14.52;95465.16;5021239;28;20042;-79
2022/04/14 06:18:30;;;;;;;16.98;8.20;;;;;;;28.78;14.74;95471.09;5004069;28;20045;-80
2022/04/14 06:20:55;;;;;;;18.67;7.45;;;;;;;28.25;15.03;95467.31;5021663;28;20026;-80
2022/04/14 06:23:21;;;;;;;18.45;7.82;;;;;;;27.64;15.80;95465.09;5004906;28;20038;-80
2022/04/14 06:25:50;;;;;;;19.00;7.97;;;;;;;27.18;16.05;95464.09;5021272;28;20060;-80
2022/04/14 06:28:17;;;;;;;20.15;7.45;;;;;;;26.60;16.41;95472.72;5021964;28;20478;-80
2022/04/14 06:30:43;;;;;;;31.08;8.82;;;;;;;26.02;17.13;95469.44;5006066;28;20034;-80
2022/04/14 06:33:08;;;;;;;26.40;8.15;;;;;;;25.76;17.29;95468.66;5023468;28;20048;-80
2022/04/14 06:35:34;;;;;;;19.13;8.07;;;;;;;25.56;17.76;95475.34;5022961;28;20036;-80
2022/04/14 06:37:59;;;;;;;18.25;8.07;;;;;;;25.14;18.02;95464.25;5006440;28;20408;-80
2022/04/14 06:40:25;;;;;;;21.85;7.88;;;;;;;24.85;17.61;95471.91;5021611;28;20022;-80
2022/04/14 06:42:50;;;;;;;29.83;8.88;;;;;;;24.63;18.31;95469.31;5004686;28;20038;-81
2022/04/14 06:45:16;;;;;;;29.75;9.10;;;;;;;24.21;18.15;95468.69;5017568;28;20239;-79
2022/04/14 06:47:41;;;;;;;29.98;7.47;;;;;;;23.67;18.82;95470.44;5016313;28;20038;-79
2022/04/14 06:50:07;;;;;;;29.55;8.25;;;;;;;23.35;19.14;95472.09;5014920;28;20099;-79
2022/04/14 06:52:33;;;;;;;19.80;7.90;;;;;;;23.12;19.34;95470.47;4999057;28;20048;-75
2022/04/14 06:54:59;;;;;;;17.23;7.72;;;;;;;22.86;20.42;95478.09;5010125;28;20029;-77
2022/04/14 06:57:24;;;;;;;21.50;7.85;;;;;;;23.03;20.29;95472.22;5011172;28;20038;-78
2022/04/14 06:59:50;;;;;;;27.70;8.93;;;;;;;22.90;19.46;95479.06;5017190;28;20104;-79
2022/04/14 07:02:15;;;;;;;17.55;8.38;;;;;;;22.79;19.67;95482.19;5019302;28;20029;-79
2022/04/14 07:04:41;;;;;;;14.95;9.10;;;;;;;22.70;19.92;95488.16;5016894;28;20037;-79
2022/04/14 07:07:06;;;;;;;21.90;8.35;;;;;;;22.77;19.93;95485.88;5019320;28;20038;-79
2022/04/14 07:09:33;;;;;;;18.88;8.65;;;;;;;22.47;20.02;95486.44;5018922;28;20042;-79
2022/04/14 07:12:04;;;;;;;24.42;8.95;;;;;;;22.01;20.37;95483.66;5018209;28;20037;-78
2022/04/14 07:14:30;;;;;;;20.70;8.65;;;;;;;21.74;20.65;95485.06;5034007;28;20041;-83
2022/04/14 07:16:59;;;;;;;19.67;9.45;;;;;;;21.53;21.22;95487.22;5017990;28;20091;-79
2022/04/14 07:19:25;;;;;;;11.70;8.40;;;;;;;21.42;21.23;95488.41;5018566;28;20032;-79
2022/04/14 07:21:50;;;;;;;31.92;9.15;;;;;;;21.23;21.37;95484.91;5016415;28;20030;-79
2022/04/14 07:24:16;;;;;;;21.15;9.30;;;;;;;20.95;21.53;95489.94;5018659;28;20052;-79
2022/04/14 07:26:41;;;;;;;29.23;9.20;;;;;;;20.85;21.61;95484.78;5016389;28;20049;-82
2022/04/14 07:29:07;;;;;;;18.83;10.52;;;;;;;20.84;22.80;95480.56;5000938;28;20038;-80
2022/04/14 07:31:32;;;;;;;37.50;8.70;;;;;;;20.82;22.59;95464.16;5017959;28;20026;-79
2022/04/14 07:33:58;;;;;;;17.92;8.27;;;;;;;20.66;22.69;95475.97;5017255;28;20042;-80
2022/04/14 07:36:25;;;;;;;22.98;8.68;;;;;;;20.75;22.85;95474.31;5017518;28;20044;-80
2022/04/14 07:38:50;;;;;;;14.93;9.02;;;;;;;20.77;22.14;95469.53;5018236;28;20077;-79
2022/04/14 07:41:16;;;;;;;18.15;9.93;;;;;;;20.72;22.48;95464.28;5000274;28;20029;-79
2022/04/14 07:43:41;;;;;;;34.08;8.70;;;;;;;20.59;23.72;95460.44;5000610;28;20038;-79
2022/04/14 07:46:07;;;;;;;13.65;8.13;;;;;;;19.94;23.75;95469.66;5018484;28;20037;-79
2022/04/14 07:48:32;;;;;;;19.20;8.77;;;;;;;19.96;23.56;95464.88;5016529;28;20034;-79
2022/04/14 07:51:00;;;;;;;18.92;8.98;;;;;;;20.01;23.46;95464.84;5001437;28;20528;-79
2022/04/14 07:53:25;;;;;;;22.58;8.75;;;;;;;20.09;23.33;95461.63;5019903;28;20040;-79
2022/04/14 07:58:43;;;;;;;34.20;8.00;;;;;;;20.31;22.52;95459.31;4985281;28;20521;-78
2022/04/14 08:01:09;;;;;;;19.10;8.02;;;;;;;20.41;22.73;95457.69;4991842;28;20046;-78
2022/04/14 08:03:37;;;;;;;23.13;8.50;;;;;;;20.51;22.62;95463.69;4994082;28;20525;-80
2022/04/14 08:06:02;;;;;;;24.67;8.95;;;;;;;20.63;22.60;95450.88;4997424;28;20042;-77
2022/04/14 08:08:28;;;;;;;27.42;9.77;;;;;;;20.79;22.95;95454.16;4997777;28;20053;-78
2022/04/14 08:10:53;;;;;;;17.15;8.60;;;;;;;20.88;22.34;95449.84;4999316;28;20030;-78
2022/04/14 08:13:19;;;;;;;40.13;9.82;;;;;;;20.85;22.48;95455.72;4998142;28;20093;-78
2022/04/14 08:15:44;;;;;;;19.13;7.85;;;;;;;20.67;22.35;95451.13;4997399;28;20062;-79
2022/04/14 08:18:10;;;;;;;21.92;8.45;;;;;;;20.67;22.57;95445.84;4998102;28;20039;-78
2022/04/14 08:20:39;;;;;;;17.85;7.82;;;;;;;20.61;22.82;95449.59;4975398;28;20070;-78
2022/04/14 08:23:05;;;;;;;22.67;7.60;;;;;;;20.61;22.83;95441.66;4977926;28;20038;-78
2022/04/14 08:25:32;;;;;;;21.33;8.15;;;;;;;20.58;22.21;95443.00;4997800;28;20034;-78
2022/04/14 08:27:58;;;;;;;18.60;8.35;;;;;;;20.51;22.66;95444.41;4994919;28;20127;-80
2022/04/14 08:30:25;;;;;;;20.25;8.82;;;;;;;20.36;22.29;95448.75;4978656;28;20045;-78
2022/04/14 08:32:51;;;;;;;20.27;8.25;;;;;;;20.23;22.21;95452.00;4980117;28;20105;-79
2022/04/14 08:35:17;;;;;;;18.98;8.15;;;;;;;20.17;22.87;95455.75;4989808;28;20144;-78
2022/04/14 08:37:43;;;;;;;24.67;8.00;;;;;;;19.84;23.01;95459.16;4991899;28;20058;-77
2022/04/14 08:40:10;;;;;;;13.18;8.07;;;;;;;19.67;22.88;95455.03;4958573;28;20118;-79
2022/04/14 08:42:55;;;;;;;16.85;8.20;;;;;;;19.46;23.55;95448.25;4956356;28;20037;-78
2022/04/14 08:45:22;;;;;;;16.52;8.20;;;;;;;19.00;23.77;95443.19;4988510;28;20026;-79
2022/04/14 08:47:49;;;;;;;20.13;8.05;;;;;;;18.97;24.16;95449.00;4973619;28;20042;-77
2022/04/14 08:50:14;;;;;;;21.33;8.40;;;;;;;18.71;24.04;95442.19;4977727;28;20042;-79
2022/04/14 08:52:40;;;;;;;20.13;7.60;;;;;;;18.46;23.76;95435.91;4958517;28;20038;-79
2022/04/14 08:55:09;;;;;;;25.10;8.23;;;;;;;18.35;24.67;95433.53;4989563;28;20045;-79
2022/04/14 08:57:35;;;;;;;21.58;7.50;;;;;;;18.46;24.32;95430.63;4941055;28;20042;-77
2022/04/14 09:00:01;;;;;;;19.30;7.00;;;;;;;18.65;24.45;95427.47;4974527;28;20053;-78
2022/04/14 09:02:26;;;;;;;13.82;7.30;;;;;;;18.85;24.96;95422.13;4992790;28;20499;-78
2022/04/14 09:04:52;;;;;;;17.88;6.63;;;;;;;18.94;23.59;95415.28;4959223;28;20421;-78
2022/04/14 09:07:23;;;;;;;12.98;7.30;;;;;;;19.01;23.93;95420.25;4959342;28;20061;-78
2022/04/14 09:09:49;;;;;;;21.65;7.32;;;;;;;19.04;23.58;95419.72;4957916;28;20057;-78
2022/04/14 09:12:15;;;;;;;20.45;6.28;;;;;;;18.98;23.57;95416.31;4995400;28;20042;-78
2022/04/14 09:14:40;;;;;;;9.40;6.05;;;;;;;18.96;23.34;95412.38;4975171;28;20110;-78
2022/04/14 09:17:09;;;;;;;12.93;5.78;;;;;;;18.83;23.12;95416.34;4976967;28;20217;-79
2022/04/14 09:19:35;;;;;;;10.20;5.20;;;;;;;18.91;23.06;95410.53;4972879;28;20129;-78
2022/04/14 09:22:02;;;;;;;13.00;5.63;;;;;;;19.04;23.04;95409.97;4972529;28;20113;-77
2022/04/14 09:24:49;;;;;;;15.65;6.80;;;;;;;19.11;23.09;95407.03;4956162;28;20054;-77
2022/04/14 09:27:25;;;;;;;9.32;5.22;;;;;;;19.02;22.67;95406.78;4972020;28;20053;-77
2022/04/14 09:30:21;;;;;;;11.73;5.38;;;;;;;18.96;22.84;95417.63;4971481;28;20029;-80
2022/04/14 09:32:47;;;;;;;21.02;4.88;;;;;;;18.66;23.33;95402.72;4988745;28;20038;-78
2022/04/14 09:35:16;;;;;;;17.52;4.22;;;;;;;18.69;23.53;95402.16;4989901;28;20088;-78
2022/04/14 09:37:41;;;;;;;10.30;5.03;;;;;;;18.72;22.84;95406.94;4953232;28;20042;-78
2022/04/14 09:40:08;;;;;;;13.88;4.70;;;;;;;18.54;23.65;95395.06;4939679;28;20614;-78
2022/04/14 09:42:41;;;;;;;10.23;4.85;;;;;;;18.46;23.41;95392.97;4957254;28;20217;-78
2022/04/14 09:45:23;;;;;;;9.00;4.80;;;;;;;18.34;23.17;95395.91;4963695;28;20037;-78
2022/04/14 09:47:49;;;;;;;11.50;4.55;;;;;;;18.37;23.78;95395.34;4985549;28;20061;-78
2022/04/14 09:50:26;;;;;;;21.58;4.60;;;;;;;18.51;23.64;95391.13;4979860;28;20038;-77
2022/04/14 09:53:08;;;;;;;16.00;4.10;;;;;;;18.65;23.65;95387.97;4993026;28;20042;-77
2022/04/14 09:55:55;;;;;;;6.35;4.53;;;;;;;18.79;22.91;95384.50;4992788;28;20053;-76
2022/04/14 09:58:21;;;;;;;10.00;4.38;;;;;;;18.87;22.59;95378.69;4992083;28;20086;-75
2022/04/14 10:00:53;;;;;;;10.48;4.15;;;;;;;18.94;22.11;95383.66;4992998;28;20069;-76
2022/04/14 10:03:19;;;;;;;10.15;4.38;;;;;;;18.96;22.38;95378.09;4993336;28;20177;-78
2022/04/14 10:05:45;;;;;;;8.90;3.72;;;;;;;18.88;21.91;95374.19;4996071;28;20082;-78
2022/04/14 10:08:12;;;;;;;8.20;3.92;;;;;;;18.93;22.27;95374.16;4963785;28;20042;-77
2022/04/14 10:10:38;;;;;;;11.68;4.10;;;;;;;18.93;22.18;95368.91;4999790;28;20042;-78
2022/04/14 10:13:05;;;;;;;6.40;4.40;;;;;;;18.51;22.22;95367.41;4985866;28;20041;-78
2022/04/14 10:15:32;;;;;;;9.23;4.60;;;;;;;18.12;23.19;95361.97;4981477;28;20521;-78
2022/04/14 10:17:57;;;;;;;9.02;4.40;;;;;;;18.09;23.00;95359.09;4979416;28;20034;-78
2022/04/14 10:20:25;;;;;;;9.27;4.18;;;;;;;18.13;23.26;95358.28;4962497;28;20814;-77
2022/04/14 10:22:50;;;;;;;10.50;4.90;;;;;;;18.12;22.75;95364.59;4962274;28;20066;-77
2022/04/14 10:25:16;;;;;;;22.92;4.05;;;;;;;18.08;23.19;95355.66;4977653;28;20034;-77
2022/04/14 10:27:42;;;;;;;15.27;5.13;;;;;;;18.12;24.20;95356.72;4961464;28;20042;-81
2022/04/14 10:30:07;;;;;;;10.35;4.78;;;;;;;18.20;25.33;95358.78;4955743;28;20031;-81
2022/04/14 10:32:36;;;;;;;10.88;4.80;;;;;;;18.26;24.04;95357.75;4982077;28;20045;-82
2022/04/14 10:35:03;;;;;;;5.72;4.13;;;;;;;18.35;24.16;95355.34;4980714;28;20143;-81
2022/04/14 10:37:41;;;;;;;5.78;4.05;;;;;;;18.40;23.03;95355.34;4979911;28;20034;-81
2022/04/14 10:40:09;;;;;;;11.35;4.45;;;;;;;18.39;22.97;95355.63;4980053;28;20038;-80
2022/04/14 10:42:34;;;;;;;18.38;5.63;;;;;;;18.20;22.72;95363.25;4979134;28;20034;-80
2022/04/14 10:44:59;;;;;;;11.50;3.88;;;;;;;18.09;22.45;95362.50;5000312;28;20045;-81
2022/04/14 10:47:50;;;;;;;11.27;3.75;;;;;;;18.15;22.98;95360.66;4999125;28;20026;-80
2022/04/14 10:50:32;;;;;;;8.82;4.18;;;;;;;18.10;22.98;95360.66;4997559;28;20034;-80
2022/04/14 10:53:13;;;;;;;5.97;4.10;;;;;;;18.17;22.67;95354.06;4997389;28;20034;-80
2022/04/14 10:55:43;;;;;;;14.93;4.97;;;;;;;18.17;22.87;95353.28;4998904;28;20038;-80
2022/04/14 10:58:40;;;;;;;6.82;4.32;;;;;;;18.14;22.79;95353.81;4998901;28;20026;-80
2022/04/14 11:01:06;;;;;;;7.93;4.53;;;;;;;18.18;22.90;95355.63;4991112;28;20526;-82
2022/04/14 11:03:46;;;;;;;8.35;4.13;;;;;;;18.19;22.80;95343.25;4996685;28;20070;-81
2022/04/14 11:06:47;;;;;;;9.23;4.55;;;;;;;18.31;22.35;95351.66;4995779;28;20956;-81
2022/04/14 11:09:46;;;;;;;7.97;4.63;;;;;;;18.43;22.69;95352.19;4995888;28;20073;-81
2022/04/14 11:12:19;;;;;;;8.07;4.63;;;;;;;18.48;24.58;95349.53;4943282;28;20410;-81
2022/04/14 11:15:07;;;;;;;5.18;4.05;;;;;;;18.56;22.36;95345.56;4995818;28;20034;-81
2022/04/14 11:17:48;;;;;;;7.45;4.30;;;;;;;18.61;22.25;95335.00;4980768;28;20065;-81
2022/04/14 11:20:27;;;;;;;5.13;4.10;;;;;;;18.65;22.71;95343.97;4997330;28;20026;-82
2022/04/14 11:23:17;;;;;;;5.80;4.13;;;;;;;18.69;22.75;95344.22;4979640;28;20085;-80
2022/04/14 11:25:49;;;;;;;12.60;5.13;;;;;;;18.36;22.51;95341.13;4980712;28;20153;-83
2022/04/14 11:28:25;;;;;;;5.30;4.57;;;;;;;18.30;22.47;95336.94;4995620;28;20042;-79